メインページ
METAR-TAF:

METAR-TAF

空港 :

Ballina, オーストラリア

緯度: 28-50-00S, 経度: 153-33-42E, 海抜: 2m

現時点の気象観測

当レポートは1時間9分前の16:00(UTC)に作成
西の風 5kt
気温 11°C
湿度 87%
気圧 1025 hPa
視程10km以上
高度6900ftの雲は散在している

METAR: YBNA 221600Z AUTO 27005KT 9999 // SCT069 11/09 Q1025

時間: 03:09 (17:09 UTC)


TAF: 見つかりません

4,000以上の空港の気象観測と天気予報(METAR報とTAF報)

利用可能な観測所は地図上に黄色い丸と赤い丸で示す。

丸の上にカーソルを重ねると観測所名を参照できる。

次にクリックすると気象観測と天気予報を参照できる。

マップの切り替え:黒色「×」印の緑ボタンをクリックして拡大、「-」印の緑ボタンをクリックして縮小、緑色の三角印をクリックして隣りの地図に切り替え


METAR-TAF: